Главная страница
METAR-TAF:

METAR-TAF

Аэропорты :

Батуми, Грузия

широта: 41-36-37N, долгота: 041-35-58E, высота над уровнем моря: 32 м

Текущие метеонаблюдения

Эта сводка был подготовлена 19 минут назад, в 12:00 UTC
Ветер 6 Узел от северо-северо-восточный
Температура 14°C
Влажность 63%
Давление 1019 hPa
Видимость 10 км и более
Нет облачности ниже 1500 м, и нет кучево-дождевой облачности

METAR: UGSB 151200Z 02006KT CAVOK 14/07 Q1019 R13/CLRD70 NOSIG

Время: 16:19 (12:19 UTC)

Прогноз

Эта сводка был подготовлена 1 час и 19 минут назад, в 11:00 UTC
Прогноз действительный с 15-го 12 UTC до 16-го 12 UTC
Ветер 6 Узел от западный
Видимость 10 км и более
Нет облачности ниже 1500 м, и нет кучево-дождевой облачности
изменения
С 15-го 13 UTC до 15-го 15 UTC
Ветер 15 Узел от юго-восточный
изменения
С 16-го 09 UTC до 16-го 11 UTC
Ветер 3 Узел переменных направлений

TAF: UGSB 151100Z 1512/1612 27006KT CAVOK TX16/1512Z TN08/1601Z BECMG 1513/1515 13015KT BECMG 1609/1611 VRB03KT

Метеонаблюдения и прогнозы для более 4000 аэропортов (сводки METAR и TAF).

Имеющиеся станции представлены на карте желтыми и красными точками.

Чтобы увидеть название станции, наведите на нее мышь.

Затем щелкните, чтобы увидеть метеонаблюдения и метеопрогнозы.

Управление картой: чтобы увеличить масштаб, щелкните зеленые кнопки с черным крестиком; чтобы уменьшить масштаб, щелкните зеленую кнопку с тире; для просмотра соседних карт щелкайте зеленые стрелки.


METAR-TAF: